Time;durP1;ratioP1;P1;durP2;ratioP2;P2;SDS_P1;SDS_P2;PMS_P1;PMS_P2;Temp;Humidity;BMP_temperature;BMP_pressure;BME280_temperature;BME280_humidity;BME280_pressure;Samples;Min_cycle;Max_cycle;Signal;HPM_P1;HPM_P2
2022/04/02 00:00:48;;;;;;;0.20;0.20;;;;;;;-0.46;100.00;100884.06;5050208;28;20075;-78
2022/04/02 00:03:21;;;;;;;0.30;0.30;;;;;;;-0.47;100.00;100886.94;5051993;28;20044;-78
2022/04/02 00:05:55;;;;;;;0.30;0.30;;;;;;;-0.44;100.00;100882.03;5051748;28;20812;-78
2022/04/02 00:08:28;;;;;;;0.30;0.30;;;;;;;-0.50;100.00;100879.31;5034045;28;20053;-78
2022/04/02 00:10:56;;;;;;;0.22;0.22;;;;;;;-0.60;100.00;100877.84;5051573;28;20049;-77
2022/04/02 00:13:32;;;;;;;0.20;0.20;;;;;;;-0.48;100.00;100880.78;5050069;28;20087;-78
2022/04/02 00:16:07;;;;;;;0.30;0.30;;;;;;;-0.47;100.00;100876.25;5051027;28;20067;-79
2022/04/02 00:18:42;;;;;;;0.30;0.30;;;;;;;-0.60;100.00;100872.50;5043003;28;20053;-78
2022/04/02 00:21:15;;;;;;;0.20;0.20;;;;;;;-0.60;100.00;100871.69;5044573;28;20057;-78
2022/04/02 00:23:44;;;;;;;0.20;0.20;;;;;;;-0.54;100.00;100865.53;5050288;28;20060;-78
2022/04/02 00:26:19;;;;;;;0.20;0.20;;;;;;;-0.39;100.00;100870.72;5048147;28;20049;-78
2022/04/02 00:28:50;;;;;;;0.25;0.25;;;;;;;-0.35;100.00;100875.47;5051110;28;20049;-77
2022/04/02 00:31:20;;;;;;;0.22;0.22;;;;;;;-0.54;100.00;100847.66;5050342;28;20064;-79
2022/04/02 00:33:49;;;;;;;0.22;0.22;;;;;;;-0.46;100.00;100864.53;5044697;28;20045;-77
2022/04/02 00:36:23;;;;;;;0.30;0.30;;;;;;;-0.41;100.00;100870.09;5051544;28;20048;-77
2022/04/02 00:38:57;;;;;;;0.28;0.28;;;;;;;-0.42;100.00;100863.91;5043049;28;20053;-77
2022/04/02 00:41:30;;;;;;;0.20;0.20;;;;;;;-0.41;100.00;100872.78;5046400;28;20056;-78
2022/04/02 00:44:11;;;;;;;0.20;0.20;;;;;;;-0.42;100.00;100869.25;5050609;28;20057;-78
2022/04/02 00:46:45;;;;;;;0.25;0.25;;;;;;;-0.45;100.00;100874.22;5065937;28;20045;-78
2022/04/02 00:49:18;;;;;;;0.20;0.20;;;;;;;-0.45;100.00;100868.84;5044486;28;20072;-78
2022/04/02 00:51:53;;;;;;;0.30;0.30;;;;;;;-0.59;100.00;100858.13;5049879;28;20052;-78
2022/04/02 00:54:27;;;;;;;0.20;0.20;;;;;;;-0.58;100.00;100870.47;5049135;28;20045;-78
2022/04/02 00:57:01;;;;;;;0.20;0.20;;;;;;;-0.64;100.00;100865.91;5049089;28;20061;-78
2022/04/02 00:59:36;;;;;;;0.25;0.25;;;;;;;-0.63;100.00;100856.88;5047570;28;20048;-79
2022/04/02 01:02:09;;;;;;;0.20;0.20;;;;;;;-0.56;100.00;100871.06;5049975;28;20107;-78
2022/04/02 01:04:42;;;;;;;0.25;0.25;;;;;;;-0.59;100.00;100868.00;5049509;28;20482;-78
2022/04/02 01:07:18;;;;;;;0.20;0.20;;;;;;;-0.50;100.00;100868.63;5046281;28;20056;-78
2022/04/02 01:09:46;;;;;;;0.30;0.30;;;;;;;-0.61;100.00;100881.53;5040839;28;20069;-78
2022/04/02 01:12:19;;;;;;;0.30;0.30;;;;;;;-0.59;100.00;100884.84;5049887;28;20053;-78
2022/04/02 01:14:54;;;;;;;0.30;0.30;;;;;;;-0.50;100.00;100876.66;5049862;28;20049;-80
2022/04/02 01:17:40;;;;;;;0.20;0.20;;;;;;;-0.44;100.00;100878.50;5049276;28;20056;-79
2022/04/02 01:20:23;;;;;;;0.32;0.32;;;;;;;-0.41;100.00;100884.28;5050779;28;20064;-79
2022/04/02 01:23:01;;;;;;;0.30;0.30;;;;;;;-0.46;100.00;100880.56;5050077;28;20071;-79
2022/04/02 01:25:41;;;;;;;0.30;0.30;;;;;;;-0.39;100.00;100890.28;5050152;28;20036;-77
2022/04/02 01:28:24;;;;;;;0.35;0.35;;;;;;;-0.40;100.00;100885.94;5041832;28;20057;-78
2022/04/02 01:30:55;;;;;;;0.30;0.30;;;;;;;-0.29;100.00;100894.38;5047013;28;20049;-78
2022/04/02 01:33:28;;;;;;;0.30;0.30;;;;;;;-0.27;100.00;100887.81;5049118;28;20489;-79
2022/04/02 01:36:05;;;;;;;0.30;0.30;;;;;;;-0.37;100.00;100890.06;5040361;28;20505;-78
2022/04/02 01:38:52;;;;;;;0.30;0.30;;;;;;;-0.41;100.00;100886.97;5060317;28;20057;-79
2022/04/02 01:41:22;;;;;;;0.30;0.30;;;;;;;-0.45;100.00;100892.91;5053212;28;20056;-78
2022/04/02 01:43:57;;;;;;;0.30;0.30;;;;;;;-0.44;100.00;100891.88;5053447;28;20071;-78
2022/04/02 01:46:26;;;;;;;0.30;0.30;;;;;;;-0.49;100.00;100894.34;5053572;28;20052;-78
2022/04/02 01:48:59;;;;;;;0.30;0.30;;;;;;;-0.44;100.00;100892.72;5052655;28;20044;-78
2022/04/02 01:51:32;;;;;;;0.20;0.20;;;;;;;-0.61;100.00;100889.56;5053919;28;20517;-78
2022/04/02 01:54:11;;;;;;;0.40;0.40;;;;;;;-0.46;100.00;100901.97;5052856;28;20053;-78
2022/04/02 01:56:39;;;;;;;0.28;0.28;;;;;;;-0.55;100.00;100891.44;5047774;28;20053;-79
2022/04/02 01:59:13;;;;;;;0.30;0.30;;;;;;;-0.66;100.00;100892.03;5052555;28;20512;-79
2022/04/02 02:01:48;;;;;;;0.30;0.30;;;;;;;-0.54;100.00;100902.94;5052542;28;20061;-78
2022/04/02 02:04:21;;;;;;;0.30;0.30;;;;;;;-0.62;100.00;100887.09;5053159;28;20052;-78
2022/04/02 02:06:54;;;;;;;0.35;0.35;;;;;;;-0.55;100.00;100896.78;5053904;28;20523;-78
2022/04/02 02:09:25;;;;;;;0.30;0.30;;;;;;;-0.48;100.00;100901.31;5050042;28;20053;-77
2022/04/02 02:12:22;;;;;;;0.40;0.40;;;;;;;-0.38;100.00;100896.44;5036106;28;20072;-79
2022/04/02 02:15:02;;;;;;;0.30;0.30;;;;;;;-0.60;100.00;100891.22;5043682;28;20049;-79
2022/04/02 02:17:31;;;;;;;0.30;0.30;;;;;;;-0.54;100.00;100894.94;5052562;28;20397;-79
2022/04/02 02:20:02;;;;;;;0.30;0.30;;;;;;;-0.58;100.00;100891.84;5050360;28;20049;-79
2022/04/02 02:22:35;;;;;;;0.30;0.30;;;;;;;-0.71;100.00;100883.78;5049720;28;20068;-78
2022/04/02 02:25:12;;;;;;;0.30;0.30;;;;;;;-0.67;100.00;100892.22;5052227;28;20055;-80
2022/04/02 02:27:42;;;;;;;0.40;0.40;;;;;;;-0.65;100.00;100892.84;5052475;28;20060;-80
2022/04/02 02:30:19;;;;;;;0.25;0.25;;;;;;;-0.70;100.00;100896.13;5053290;28;20604;-78
2022/04/02 02:35:52;;;;;;;0.30;0.30;;;;;;;-0.65;100.00;100899.00;5066678;28;20041;-78
2022/04/02 02:38:44;;;;;;;0.30;0.30;;;;;;;-0.73;100.00;100891.19;5050293;28;20067;-79
2022/04/02 02:41:31;;;;;;;0.20;0.20;;;;;;;-0.78;100.00;100877.59;5048540;28;20071;-79
2022/04/02 02:44:08;;;;;;;0.40;0.40;;;;;;;-0.74;100.00;100903.72;5052411;28;20045;-78
2022/04/02 02:46:46;;;;;;;0.30;0.30;;;;;;;-0.74;100.00;100889.53;5052279;28;20394;-80
2022/04/02 02:49:25;;;;;;;0.40;0.40;;;;;;;-0.65;100.00;100896.31;5051188;28;20057;-78
2022/04/02 02:52:00;;;;;;;0.38;0.38;;;;;;;-0.68;100.00;100896.72;5051387;28;20053;-78
2022/04/02 02:54:33;;;;;;;0.30;0.30;;;;;;;-0.59;100.00;100910.78;5044423;28;20049;-78
2022/04/02 02:57:08;;;;;;;0.30;0.30;;;;;;;-0.49;100.00;100910.38;5051991;28;20045;-78
2022/04/02 02:59:42;;;;;;;0.30;0.30;;;;;;;-0.46;100.00;100910.78;5043209;28;20072;-79
2022/04/02 03:02:14;;;;;;;0.40;0.40;;;;;;;-0.43;100.00;100910.41;5051487;28;20049;-78
2022/04/02 03:04:52;;;;;;;0.40;0.40;;;;;;;-0.52;100.00;100911.59;5051539;28;20045;-78
2022/04/02 03:07:36;;;;;;;0.40;0.40;;;;;;;-0.66;100.00;100902.72;5051818;28;20045;-79
2022/04/02 03:10:12;;;;;;;0.30;0.30;;;;;;;-0.61;100.00;100910.13;5053009;28;20063;-79
2022/04/02 03:12:42;;;;;;;0.38;0.38;;;;;;;-0.58;100.00;100909.72;5052735;28;20041;-78
2022/04/02 03:15:16;;;;;;;0.43;0.43;;;;;;;-0.63;100.00;100909.53;5055644;28;20028;-79
2022/04/02 03:17:44;;;;;;;0.30;0.30;;;;;;;-0.62;100.00;100908.47;5051341;28;20049;-78
2022/04/02 03:20:19;;;;;;;0.30;0.30;;;;;;;-0.68;100.00;100912.78;5043083;28;20048;-78
2022/04/02 03:22:53;;;;;;;0.40;0.40;;;;;;;-0.72;100.00;100909.69;5052115;28;20041;-79
2022/04/02 03:25:22;;;;;;;0.38;0.38;;;;;;;-0.71;100.00;100914.00;5050294;28;20045;-79
2022/04/02 03:27:57;;;;;;;0.40;0.40;;;;;;;-0.65;100.00;100908.88;5051069;28;20071;-78
2022/04/02 03:30:31;;;;;;;0.30;0.30;;;;;;;-0.60;100.00;100917.13;5051379;28;20500;-78
2022/04/02 03:33:05;;;;;;;0.32;0.32;;;;;;;-0.74;100.00;100910.91;5047844;28;20056;-78
2022/04/02 03:35:39;;;;;;;0.30;0.30;;;;;;;-0.70;100.00;100914.84;5043348;28;20052;-79
2022/04/02 03:38:12;;;;;;;0.40;0.40;;;;;;;-0.72;100.00;100896.31;5050025;28;20052;-78
2022/04/02 03:40:47;;;;;;;0.30;0.30;;;;;;;-0.60;100.00;100909.94;5044708;28;20053;-78
2022/04/02 03:43:21;;;;;;;0.40;0.40;;;;;;;-0.66;100.00;100896.53;5049149;28;20049;-78
2022/04/02 03:45:49;;;;;;;0.30;0.30;;;;;;;-0.56;100.00;100910.34;5047258;28;20045;-79
2022/04/02 03:48:23;;;;;;;0.30;0.30;;;;;;;-0.65;100.00;100906.22;5048829;28;20057;-78
2022/04/02 03:50:51;;;;;;;0.30;0.30;;;;;;;-0.35;100.00;100920.09;5050589;28;20053;-78
2022/04/02 03:53:24;;;;;;;0.30;0.30;;;;;;;-0.37;100.00;100920.28;5052139;28;20045;-78
2022/04/02 03:56:00;;;;;;;0.32;0.32;;;;;;;-0.27;100.00;100913.75;5051016;28;20057;-78
2022/04/02 03:58:42;;;;;;;0.30;0.30;;;;;;;-0.16;100.00;100917.69;5041909;28;20477;-78
2022/04/02 04:01:16;;;;;;;0.30;0.30;;;;;;;-0.16;100.00;100923.03;5039302;28;20048;-79
2022/04/02 04:03:50;;;;;;;0.30;0.30;;;;;;;-0.20;100.00;100923.41;5051169;28;20048;-78
2022/04/02 04:06:19;;;;;;;0.25;0.25;;;;;;;-0.04;100.00;100919.53;5050726;28;20037;-78
2022/04/02 04:08:53;;;;;;;0.20;0.20;;;;;;;0.02;100.00;100925.94;5050183;28;20049;-79
2022/04/02 04:11:27;;;;;;;0.30;0.30;;;;;;;-0.06;100.00;100926.13;5049077;28;20045;-79
2022/04/02 04:13:57;;;;;;;0.22;0.22;;;;;;;-0.07;100.00;100909.25;5043231;28;20060;-79
2022/04/02 04:16:30;;;;;;;0.20;0.20;;;;;;;0.08;100.00;100935.81;5046779;28;20076;-78
2022/04/02 04:18:59;;;;;;;0.30;0.30;;;;;;;0.11;100.00;100934.56;5049517;28;20056;-79
2022/04/02 04:21:28;;;;;;;0.20;0.20;;;;;;;-0.02;100.00;100935.41;5048618;28;20068;-79
2022/04/02 04:24:02;;;;;;;0.28;0.28;;;;;;;-0.07;100.00;100937.84;5050361;28;20058;-80
2022/04/02 04:26:35;;;;;;;0.20;0.20;;;;;;;-0.01;100.00;100937.84;5045437;28;20072;-78
2022/04/02 04:29:05;;;;;;;0.30;0.30;;;;;;;0.06;100.00;100945.91;5047753;28;20053;-77
2022/04/02 04:31:39;;;;;;;0.20;0.20;;;;;;;0.14;100.00;100947.56;5042831;28;20045;-77
2022/04/02 04:34:13;;;;;;;0.20;0.20;;;;;;;0.04;100.00;100939.91;5050688;28;20045;-78
2022/04/02 04:36:47;;;;;;;0.30;0.30;;;;;;;-0.04;100.00;100943.63;5044423;28;20054;-79
2022/04/02 04:39:20;;;;;;;0.30;0.30;;;;;;;0.00;100.00;100957.44;5049156;28;20041;-79
2022/04/02 04:41:56;;;;;;;0.30;0.30;;;;;;;0.09;100.00;100958.06;5050242;28;20056;-78
2022/04/02 04:44:31;;;;;;;0.30;0.30;;;;;;;-0.03;100.00;100955.13;5049787;28;20056;-78
2022/04/02 04:47:05;;;;;;;0.22;0.22;;;;;;;0.01;100.00;100956.38;5052449;28;20064;-78
2022/04/02 04:49:46;;;;;;;0.30;0.30;;;;;;;0.03;100.00;100959.69;5045403;28;20061;-78
2022/04/02 04:52:20;;;;;;;0.30;0.30;;;;;;;-0.09;100.00;100964.81;5042172;28;20055;-78
2022/04/02 04:54:49;;;;;;;0.30;0.30;;;;;;;-0.09;100.00;100972.81;5049632;28;20060;-79
2022/04/02 04:57:19;;;;;;;0.30;0.30;;;;;;;-0.03;100.00;100968.53;5049581;28;20504;-77
2022/04/02 04:59:58;;;;;;;0.30;0.30;;;;;;;-0.10;100.00;100981.88;5049425;28;20060;-78
2022/04/02 05:02:31;;;;;;;0.30;0.30;;;;;;;-0.11;100.00;100977.56;5049588;28;20049;-80
2022/04/02 05:05:00;;;;;;;0.28;0.28;;;;;;;-0.11;100.00;100976.72;5050313;28;20060;-79
2022/04/02 05:07:34;;;;;;;0.30;0.30;;;;;;;-0.11;100.00;100985.59;5048675;28;20045;-78
2022/04/02 05:10:10;;;;;;;0.30;0.30;;;;;;;-0.13;100.00;100987.63;5049488;28;20049;-79
2022/04/02 05:12:40;;;;;;;0.30;0.30;;;;;;;-0.13;100.00;100992.16;5044960;28;20048;-79
2022/04/02 05:15:16;;;;;;;0.30;0.30;;;;;;;-0.20;100.00;100990.28;5055405;28;20048;-78
2022/04/02 05:17:46;;;;;;;0.30;0.30;;;;;;;-0.11;100.00;100988.28;5053061;28;20493;-79
2022/04/02 05:20:20;;;;;;;0.30;0.30;;;;;;;-0.09;100.00;100994.22;5053817;28;20053;-80
2022/04/02 05:22:53;;;;;;;0.30;0.30;;;;;;;-0.13;100.00;100990.31;5053346;28;20057;-78
2022/04/02 05:25:27;;;;;;;0.30;0.30;;;;;;;-0.17;100.00;100999.75;5053247;28;20045;-79
2022/04/02 05:28:04;;;;;;;0.20;0.20;;;;;;;-0.22;100.00;100997.69;5054785;28;20036;-79
2022/04/02 05:30:39;;;;;;;0.30;0.30;;;;;;;-0.25;100.00;101006.13;5060334;28;20056;-78
2022/04/02 05:33:12;;;;;;;0.30;0.30;;;;;;;-0.25;100.00;101003.47;5054517;28;20131;-80
2022/04/02 05:35:45;;;;;;;0.30;0.30;;;;;;;-0.30;100.00;101005.06;5053269;28;20056;-79
2022/04/02 05:38:18;;;;;;;0.30;0.30;;;;;;;-0.40;100.00;101016.97;5051936;28;20049;-79
2022/04/02 05:40:46;;;;;;;0.30;0.30;;;;;;;-0.54;100.00;101005.38;5048145;28;20059;-79
2022/04/02 05:43:20;;;;;;;0.30;0.30;;;;;;;-0.44;100.00;101022.88;5044295;28;20045;-79
2022/04/02 05:45:49;;;;;;;0.20;0.20;;;;;;;-0.50;100.00;101023.69;5047449;28;20041;-78
2022/04/02 05:48:20;;;;;;;0.38;0.38;;;;;;;-0.32;100.00;101018.63;5052983;28;20037;-78
2022/04/02 05:50:53;;;;;;;0.35;0.35;;;;;;;-0.36;100.00;101023.56;5046538;28;20387;-79
2022/04/02 05:53:26;;;;;;;0.30;0.30;;;;;;;-0.40;100.00;101033.00;5054146;28;20393;-79
2022/04/02 05:56:01;;;;;;;0.40;0.40;;;;;;;-0.49;100.00;101039.53;5051733;28;20060;-79
2022/04/02 05:58:37;;;;;;;0.30;0.30;;;;;;;-0.55;100.00;101040.34;5048276;28;20057;-79
2022/04/02 06:01:11;;;;;;;0.40;0.40;;;;;;;-0.42;100.00;101051.09;5050982;28;20048;-79
2022/04/02 06:03:40;;;;;;;0.35;0.35;;;;;;;-0.63;100.00;101038.63;5053674;28;20041;-79
2022/04/02 06:06:13;;;;;;;0.40;0.40;;;;;;;-0.53;100.00;101060.47;5045796;28;20052;-78
2022/04/02 06:08:46;;;;;;;0.40;0.40;;;;;;;-0.48;100.00;101067.09;5045398;28;20059;-78
2022/04/02 06:11:14;;;;;;;0.30;0.30;;;;;;;-0.44;100.00;101071.03;5049081;28;20060;-78
2022/04/02 06:13:47;;;;;;;0.50;0.50;;;;;;;-0.41;100.00;101070.66;5045968;28;20057;-78
2022/04/02 06:16:23;;;;;;;0.40;0.40;;;;;;;-0.37;100.00;101062.03;5044383;28;20068;-79
2022/04/02 06:18:56;;;;;;;0.40;0.40;;;;;;;-0.35;100.00;101077.88;5050307;28;20887;-79
2022/04/02 06:21:29;;;;;;;0.40;0.40;;;;;;;-0.32;100.00;101073.97;5047187;28;20049;-79
2022/04/02 06:24:06;;;;;;;0.30;0.30;;;;;;;-0.28;100.00;101083.25;5050296;28;20061;-80
2022/04/02 06:26:39;;;;;;;0.50;0.50;;;;;;;-0.11;100.00;101081.91;5051679;28;20077;-79
2022/04/02 06:29:12;;;;;;;0.30;0.30;;;;;;;-0.04;100.00;101081.94;5053337;28;20057;-79
2022/04/02 06:31:46;;;;;;;0.50;0.50;;;;;;;0.07;100.00;101084.03;5052348;28;20061;-79
2022/04/02 06:34:14;;;;;;;0.40;0.40;;;;;;;0.08;100.00;101066.94;5052628;28;20485;-78
2022/04/02 06:36:47;;;;;;;0.40;0.40;;;;;;;0.31;100.00;101077.31;5051181;28;20840;-80
2022/04/02 06:39:21;;;;;;;0.40;0.40;;;;;;;0.42;100.00;101067.06;5048788;28;20044;-79
2022/04/02 06:41:54;;;;;;;0.50;0.50;;;;;;;0.56;100.00;101082.09;5053581;28;20767;-78
2022/04/02 06:44:31;;;;;;;0.40;0.40;;;;;;;0.62;100.00;101081.31;5051805;28;20057;-79
2022/04/02 06:47:06;;;;;;;0.50;0.50;;;;;;;0.69;100.00;101086.66;5049906;28;20383;-80
2022/04/02 06:49:39;;;;;;;0.45;0.45;;;;;;;0.83;100.00;101090.19;5043672;28;20081;-79
2022/04/02 06:52:13;;;;;;;0.40;0.40;;;;;;;0.92;100.00;101083.56;5045159;28;20045;-79
2022/04/02 06:54:46;;;;;;;0.40;0.40;;;;;;;0.78;100.00;101064.00;5062381;28;20052;-81
2022/04/02 06:57:18;;;;;;;0.40;0.40;;;;;;;0.88;100.00;101076.97;5058118;28;20048;-80
2022/04/02 06:59:46;;;;;;;0.30;0.30;;;;;;;0.82;100.00;101049.16;5050281;28;20055;-81
2022/04/02 07:02:16;;;;;;;0.75;0.40;;;;;;;1.21;100.00;101092.25;5049764;28;20049;-79
2022/04/02 07:04:50;;;;;;;0.40;0.40;;;;;;;1.38;100.00;101083.75;5048338;28;20416;-79
2022/04/02 07:07:19;;;;;;;0.50;0.40;;;;;;;1.45;100.00;101089.94;5050886;28;20825;-79
2022/04/02 07:09:52;;;;;;;0.40;0.40;;;;;;;1.75;100.00;101094.84;5044671;28;20041;-78
2022/04/02 07:12:26;;;;;;;0.40;0.40;;;;;;;1.74;100.00;101102.06;5065476;28;20048;-80
2022/04/02 07:14:59;;;;;;;0.30;0.30;;;;;;;1.94;100.00;101093.94;5049636;28;20060;-79
2022/04/02 07:17:34;;;;;;;0.40;0.40;;;;;;;1.77;100.00;101098.13;5043592;28;20386;-78
2022/04/02 07:20:09;;;;;;;0.30;0.30;;;;;;;1.57;100.00;101104.34;5047241;28;20052;-79
2022/04/02 07:22:44;;;;;;;0.28;0.28;;;;;;;1.71;100.00;101099.78;5041473;28;20045;-79
2022/04/02 07:25:19;;;;;;;0.30;0.30;;;;;;;1.72;100.00;101100.63;5049340;28;20049;-78
2022/04/02 07:27:54;;;;;;;0.30;0.30;;;;;;;1.56;100.00;101093.84;5043604;28;20497;-79
2022/04/02 07:30:27;;;;;;;0.30;0.30;;;;;;;1.84;100.00;101112.38;5039211;28;20060;-80
2022/04/02 07:33:02;;;;;;;0.30;0.30;;;;;;;1.66;100.00;101102.28;5044566;28;20057;-79
2022/04/02 07:35:40;;;;;;;0.30;0.30;;;;;;;1.69;100.00;101101.88;5048401;28;20045;-79
2022/04/02 07:38:12;;;;;;;0.30;0.30;;;;;;;1.84;100.00;101098.94;5044107;28;20049;-79
2022/04/02 07:40:55;;;;;;;0.30;0.30;;;;;;;1.82;100.00;101106.38;5044911;28;20057;-79
2022/04/02 07:43:32;;;;;;;;;;;;;;;1.72;100.00;101122.91;5045689;28;20053;-78
2022/04/02 07:46:06;;;;;;;0.30;0.30;;;;;;;1.57;100.00;101109.72;5038354;28;19924;-79
2022/04/02 07:48:37;;;;;;;0.30;0.30;;;;;;;1.48;100.00;101117.19;5047382;28;20052;-79
2022/04/02 07:51:13;;;;;;;0.30;0.30;;;;;;;1.40;100.00;101116.59;5048572;28;20057;-80
2022/04/02 07:53:44;;;;;;;0.30;0.30;;;;;;;1.30;100.00;101117.00;5042363;28;20076;-77
2022/04/02 07:56:15;;;;;;;0.25;0.25;;;;;;;1.36;100.00;101113.47;5046012;28;20057;-79
2022/04/02 07:58:53;;;;;;;0.22;0.22;;;;;;;1.31;100.00;101127.53;5044801;28;20041;-79
2022/04/02 08:01:22;;;;;;;0.20;0.20;;;;;;;1.27;100.00;101128.13;5041741;28;20049;-78
2022/04/02 08:04:02;;;;;;;0.30;0.30;;;;;;;1.24;100.00;101128.53;5048676;28;20431;-79
2022/04/02 08:06:32;;;;;;;0.20;0.20;;;;;;;1.26;100.00;101132.66;5048527;28;20061;-79
2022/04/02 08:09:08;;;;;;;0.20;0.20;;;;;;;1.27;100.00;101118.25;5045879;28;20037;-78
2022/04/02 08:11:41;;;;;;;0.20;0.20;;;;;;;1.51;100.00;101135.53;5047718;28;20048;-79
2022/04/02 08:14:15;;;;;;;0.20;0.20;;;;;;;1.51;100.00;101138.22;5046438;28;20041;-79
2022/04/02 08:16:49;;;;;;;0.20;0.20;;;;;;;1.46;100.00;101129.16;5041909;28;20787;-79
2022/04/02 08:19:24;;;;;;;0.20;0.20;;;;;;;1.62;100.00;101141.31;5047355;28;20052;-79
2022/04/02 08:21:53;;;;;;;0.20;0.20;;;;;;;1.63;100.00;101137.56;5047143;28;20060;-78
2022/04/02 08:24:27;;;;;;;0.20;0.20;;;;;;;1.79;100.00;101137.13;5047897;28;20060;-79
2022/04/02 08:27:03;;;;;;;0.20;0.20;;;;;;;1.99;100.00;101136.25;5044562;28;20061;-80
2022/04/02 08:29:51;;;;;;;0.10;0.10;;;;;;;2.24;99.67;101136.38;5043353;28;20049;-79
2022/04/02 08:32:30;;;;;;;0.30;0.30;;;;;;;2.69;100.00;101139.06;5047642;28;20136;-78
2022/04/02 08:35:09;;;;;;;0.20;0.20;;;;;;;2.96;84.31;101140.75;5048105;28;20053;-80
2022/04/02 08:38:06;;;;;;;0.20;0.20;;;;;;;3.14;82.36;101140.81;5045124;28;20060;-80
2022/04/02 08:41:04;;;;;;;0.30;0.30;;;;;;;3.15;69.73;101134.38;5037494;28;20404;-81
2022/04/02 08:44:00;;;;;;;0.20;0.20;;;;;;;2.88;67.72;101150.69;5040578;28;20061;-80
2022/04/02 08:46:37;;;;;;;0.20;0.20;;;;;;;2.93;80.01;101150.06;5049989;28;20515;-79
2022/04/02 08:49:36;;;;;;;0.30;0.30;;;;;;;2.71;81.29;101158.47;5051857;28;20488;-79
2022/04/02 08:52:23;;;;;;;0.28;0.28;;;;;;;2.33;79.76;101161.94;5045662;28;20473;-79
2022/04/02 08:55:13;;;;;;;0.20;0.20;;;;;;;2.08;82.34;101158.34;5034855;28;20542;-80
2022/04/02 08:58:10;;;;;;;0.20;0.20;;;;;;;2.22;78.43;101159.91;5040841;28;20056;-80
2022/04/02 09:00:46;;;;;;;0.30;0.30;;;;;;;2.39;81.30;101144.16;5030652;28;20075;-78
2022/04/02 09:03:54;;;;;;;0.20;0.20;;;;;;;2.74;83.94;101161.78;5029043;28;20053;-81
2022/04/02 09:07:12;;;;;;;0.20;0.20;;;;;;;2.86;80.19;101168.09;5024554;28;20056;-80
2022/04/02 09:10:07;;;;;;;0.20;0.20;;;;;;;3.15;80.64;101165.81;5031899;28;20057;-79
2022/04/02 09:12:55;;;;;;;0.30;0.30;;;;;;;3.51;73.82;101161.63;5023410;28;20056;-79
2022/04/02 09:15:38;;;;;;;0.30;0.30;;;;;;;3.64;76.50;101163.34;5028954;28;20052;-80
2022/04/02 09:18:22;;;;;;;0.20;0.20;;;;;;;3.15;75.29;101165.81;5029136;28;20045;-80
2022/04/02 09:20:58;;;;;;;0.25;0.25;;;;;;;3.04;89.20;101173.56;5030235;28;20477;-80
2022/04/02 09:23:44;;;;;;;0.20;0.20;;;;;;;3.35;98.30;101163.78;5028594;28;21652;-79
2022/04/02 09:26:55;;;;;;;0.20;0.20;;;;;;;3.71;71.96;101177.56;5028405;28;21738;-80
2022/04/02 09:29:30;;;;;;;0.20;0.20;;;;;;;3.45;100.00;101192.91;5030398;28;20048;-81
2022/04/02 09:32:45;;;;;;;0.20;0.20;;;;;;;3.32;69.19;101177.69;5025740;28;20072;-82
2022/04/02 09:35:51;;;;;;;0.20;0.20;;;;;;;3.87;72.34;101170.81;5029724;28;20063;-80
2022/04/02 09:38:45;;;;;;;0.20;0.20;;;;;;;4.28;67.32;101176.56;5026763;28;20626;-81
2022/04/02 09:41:34;;;;;;;0.20;0.20;;;;;;;3.86;65.64;101172.66;5023944;28;20610;-79
2022/04/02 09:44:30;;;;;;;0.30;0.30;;;;;;;3.47;75.00;101182.75;5028540;28;20524;-82
2022/04/02 09:47:06;;;;;;;0.20;0.20;;;;;;;3.35;68.97;101181.81;5031128;28;20731;-80
2022/04/02 09:49:51;;;;;;;0.17;0.17;;;;;;;3.11;75.06;101180.75;5033860;28;20041;-81
2022/04/02 09:52:25;;;;;;;0.47;0.20;;;;;;;3.87;80.34;101168.09;5030001;28;21531;-80
2022/04/02 09:55:07;;;;;;;0.20;0.20;;;;;;;3.65;73.46;101194.63;5023145;28;20072;-81
2022/04/02 09:57:43;;;;;;;0.30;0.30;;;;;;;3.17;64.82;101177.19;5033931;28;20049;-81
2022/04/02 10:00:18;;;;;;;0.20;0.20;;;;;;;3.19;68.47;101178.63;5028620;28;20057;-82
2022/04/02 10:03:05;;;;;;;0.10;0.10;;;;;;;3.14;67.90;101186.53;5038644;28;20049;-79
2022/04/02 10:05:56;;;;;;;0.28;0.28;;;;;;;2.45;71.05;101188.16;5030954;28;20057;-80
2022/04/02 10:08:39;;;;;;;0.20;0.20;;;;;;;2.37;81.18;101198.09;5032553;28;20061;-80
2022/04/02 10:11:16;;;;;;;0.20;0.20;;;;;;;2.11;74.10;101188.25;5032559;28;20049;-81
2022/04/02 10:13:45;;;;;;;0.20;0.20;;;;;;;2.41;78.39;101189.63;5034194;28;20040;-81
2022/04/02 10:16:23;;;;;;;0.30;0.30;;;;;;;2.55;61.68;101183.13;5031917;28;20068;-80
2022/04/02 10:18:58;;;;;;;0.20;0.20;;;;;;;2.87;63.93;101180.47;5035701;28;20748;-80
2022/04/02 10:21:36;;;;;;;0.25;0.25;;;;;;;3.70;73.05;101179.44;5036080;28;20552;-80
2022/04/02 10:24:23;;;;;;;0.20;0.20;;;;;;;3.91;72.55;101190.84;5030213;28;20390;-79
2022/04/02 10:26:58;;;;;;;0.30;0.30;;;;;;;3.44;67.72;101182.34;5033652;28;20063;-81
2022/04/02 10:29:56;;;;;;;0.20;0.20;;;;;;;2.74;68.30;101172.53;5033588;28;20057;-81
2022/04/02 10:32:46;;;;;;;0.20;0.20;;;;;;;2.77;69.98;101172.91;5028024;28;20069;-78
2022/04/02 10:35:21;;;;;;;0.20;0.20;;;;;;;2.55;75.84;101201.94;5030298;28;20060;-80
2022/04/02 10:38:04;;;;;;;0.20;0.20;;;;;;;2.65;76.91;101182.69;5034274;28;20072;-82
2022/04/02 10:40:44;;;;;;;0.20;0.20;;;;;;;3.06;79.49;101179.53;5031381;28;20053;-79
2022/04/02 10:43:25;;;;;;;0.20;0.20;;;;;;;3.24;71.71;101167.22;5031553;28;20052;-81
2022/04/02 10:46:01;;;;;;;0.20;0.20;;;;;;;3.12;63.19;101172.47;5030790;28;20067;-80
2022/04/02 10:48:50;;;;;;;0.22;0.22;;;;;;;3.34;60.32;101185.53;5029892;28;20056;-83
2022/04/02 10:51:25;;;;;;;0.20;0.20;;;;;;;3.39;60.67;101181.16;5032987;28;20056;-80
2022/04/02 10:54:04;;;;;;;0.20;0.20;;;;;;;3.63;66.62;101177.84;5035306;28;20059;-83
2022/04/02 10:56:35;;;;;;;0.20;0.20;;;;;;;4.03;65.48;101172.06;5028584;28;20628;-79
2022/04/02 10:59:03;;;;;;;0.17;0.17;;;;;;;4.09;67.62;101163.09;5046054;28;20769;-78
2022/04/02 11:01:41;;;;;;;0.20;0.20;;;;;;;3.07;64.46;101177.69;5028685;28;20049;-79
2022/04/02 11:04:29;;;;;;;0.20;0.20;;;;;;;3.31;69.58;101173.34;5034442;28;20071;-80
2022/04/02 11:06:58;;;;;;;0.20;0.20;;;;;;;3.25;64.92;101182.31;5031061;28;20416;-80
2022/04/02 11:09:33;;;;;;;0.20;0.20;;;;;;;2.83;61.95;101190.03;5029206;28;20091;-82
2022/04/02 11:12:08;;;;;;;0.30;0.20;;;;;;;3.37;74.25;101182.41;5027353;28;20075;-80
2022/04/02 11:14:43;;;;;;;0.20;0.20;;;;;;;3.87;67.30;101186.97;5025872;28;20061;-80
2022/04/02 11:17:27;;;;;;;0.20;0.20;;;;;;;3.47;58.58;101166.59;5027485;28;21712;-81
2022/04/02 11:20:14;;;;;;;0.20;0.20;;;;;;;3.69;62.17;101174.28;5030263;28;20056;-80
2022/04/02 11:23:11;;;;;;;0.20;0.20;;;;;;;3.39;60.99;101183.03;5034264;28;20067;-81
2022/04/02 11:25:49;;;;;;;0.28;0.28;;;;;;;3.38;61.71;101176.84;5033483;28;20060;-80
2022/04/02 11:28:23;;;;;;;0.20;0.20;;;;;;;3.52;63.84;101174.00;5039072;28;20067;-80
2022/04/02 11:31:04;;;;;;;0.13;0.13;;;;;;;3.41;63.05;101175.53;5025299;28;20060;-81
2022/04/02 11:33:33;;;;;;;0.20;0.20;;;;;;;3.11;61.27;101170.81;5041178;28;20048;-80
2022/04/02 11:36:15;;;;;;;0.22;0.22;;;;;;;3.19;65.51;101169.72;5044424;28;20610;-79
2022/04/02 11:38:52;;;;;;;0.20;0.20;;;;;;;2.98;60.03;101203.19;5040665;28;20044;-79
2022/04/02 11:41:30;;;;;;;0.20;0.20;;;;;;;3.18;58.71;101182.34;5044035;28;20041;-81
2022/04/02 11:44:05;;;;;;;;;;;;;;;3.00;54.19;101183.09;5044633;28;20041;-80
2022/04/02 11:46:52;;;;;;;0.20;0.20;;;;;;;3.36;59.11;101183.47;5050452;28;19924;-80
2022/04/02 11:49:28;;;;;;;0.20;0.20;;;;;;;3.35;61.00;101165.69;5043354;28;20060;-80
2022/04/02 11:52:06;;;;;;;0.20;0.20;;;;;;;3.38;57.76;101190.28;5039122;28;20379;-81
2022/04/02 11:54:42;;;;;;;0.20;0.20;;;;;;;3.22;58.31;101169.31;5039286;28;20053;-80
2022/04/02 11:57:12;;;;;;;0.20;0.20;;;;;;;3.10;58.45;101188.00;5048895;28;20595;-80
2022/04/02 11:59:50;;;;;;;0.20;0.20;;;;;;;2.99;55.84;101183.31;5045472;28;20052;-81
2022/04/02 12:02:35;;;;;;;0.25;0.25;;;;;;;3.05;53.87;101185.97;5062220;28;20055;-79
2022/04/02 12:05:05;;;;;;;0.20;0.20;;;;;;;3.09;53.68;101170.19;5048752;28;20049;-81
2022/04/02 12:07:42;;;;;;;0.20;0.20;;;;;;;3.26;52.26;101177.75;5049602;28;20071;-80
2022/04/02 12:10:16;;;;;;;0.30;0.30;;;;;;;3.14;49.19;101183.03;5045936;28;20517;-79